sensor_id;sensor_type;location;lat;lon;timestamp;temperature;humidity
16417;DHT22;8317;52.186;5.688;2023-05-10T09:10:28;13.50;99.90
16417;DHT22;8317;52.186;5.688;2023-05-10T09:12:56;13.60;99.90
16417;DHT22;8317;52.186;5.688;2023-05-10T09:15:25;13.80;99.90
16417;DHT22;8317;52.186;5.688;2023-05-10T09:17:52;13.90;99.90
16417;DHT22;8317;52.186;5.688;2023-05-10T09:20:19;13.90;99.90
16417;DHT22;8317;52.186;5.688;2023-05-10T09:22:46;13.80;99.90
16417;DHT22;8317;52.186;5.688;2023-05-10T09:25:14;13.70;99.90
16417;DHT22;8317;52.186;5.688;2023-05-10T09:27:44;13.80;99.90
16417;DHT22;8317;52.186;5.688;2023-05-10T09:30:15;13.90;99.90
16417;DHT22;8317;52.186;5.688;2023-05-10T09:32:45;14.10;99.90
16417;DHT22;8317;52.186;5.688;2023-05-10T09:35:14;14.20;99.90
16417;DHT22;8317;52.186;5.688;2023-05-10T09:37:44;14.40;99.90
16417;DHT22;8317;52.186;5.688;2023-05-10T09:40:13;14.40;99.90
16417;DHT22;8317;52.186;5.688;2023-05-10T09:42:41;14.40;99.90
16417;DHT22;8317;52.186;5.688;2023-05-10T09:45:09;14.50;99.90
16417;DHT22;8317;52.186;5.688;2023-05-10T09:47:36;14.60;99.90
16417;DHT22;8317;52.186;5.688;2023-05-10T09:50:05;14.70;99.90
16417;DHT22;8317;52.186;5.688;2023-05-10T09:52:46;14.80;99.90
16417;DHT22;8317;52.186;5.688;2023-05-10T09:55:14;14.70;99.90
16417;DHT22;8317;52.186;5.688;2023-05-10T09:57:41;14.90;99.90
16417;DHT22;8317;52.186;5.688;2023-05-10T10:00:08;15.10;99.90
16417;DHT22;8317;52.186;5.688;2023-05-10T10:02:36;15.10;99.90
16417;DHT22;8317;52.186;5.688;2023-05-10T10:05:05;15.20;99.90
16417;DHT22;8317;52.186;5.688;2023-05-10T10:07:33;15.30;99.90
16417;DHT22;8317;52.186;5.688;2023-05-10T10:10:00;15.30;99.90
16417;DHT22;8317;52.186;5.688;2023-05-10T10:12:28;15.30;99.90
16417;DHT22;8317;52.186;5.688;2023-05-10T10:14:55;15.30;99.90
16417;DHT22;8317;52.186;5.688;2023-05-10T10:17:25;15.40;99.90
16417;DHT22;8317;52.186;5.688;2023-05-10T10:19:54;15.40;99.90
16417;DHT22;8317;52.186;5.688;2023-05-10T10:22:23;15.40;99.90
16417;DHT22;8317;52.186;5.688;2023-05-10T10:24:50;15.70;99.90
16417;DHT22;8317;52.186;5.688;2023-05-10T10:27:23;15.60;99.90
16417;DHT22;8317;52.186;5.688;2023-05-10T10:30:03;15.50;99.90
16417;DHT22;8317;52.186;5.688;2023-05-10T10:32:42;15.60;99.90
16417;DHT22;8317;52.186;5.688;2023-05-10T10:35:12;15.90;99.90
16417;DHT22;8317;52.186;5.688;2023-05-10T10:37:48;15.80;99.90
16417;DHT22;8317;52.186;5.688;2023-05-10T10:40:26;15.70;99.90
16417;DHT22;8317;52.186;5.688;2023-05-10T10:42:53;15.90;99.90
16417;DHT22;8317;52.186;5.688;2023-05-10T10:45:21;15.80;99.90
16417;DHT22;8317;52.186;5.688;2023-05-10T10:47:48;15.80;99.90
16417;DHT22;8317;52.186;5.688;2023-05-10T10:50:17;15.70;99.90
16417;DHT22;8317;52.186;5.688;2023-05-10T10:52:44;15.60;99.90
16417;DHT22;8317;52.186;5.688;2023-05-10T10:55:14;15.70;99.90
16417;DHT22;8317;52.186;5.688;2023-05-10T10:57:47;15.60;99.90
16417;DHT22;8317;52.186;5.688;2023-05-10T11:00:25;15.50;99.90
16417;DHT22;8317;52.186;5.688;2023-05-10T11:02:54;15.60;99.90
16417;DHT22;8317;52.186;5.688;2023-05-10T11:05:40;15.80;99.90
16417;DHT22;8317;52.186;5.688;2023-05-10T11:08:16;15.90;99.90
16417;DHT22;8317;52.186;5.688;2023-05-10T11:11:04;15.90;99.90
16417;DHT22;8317;52.186;5.688;2023-05-10T11:13:34;15.90;99.90
16417;DHT22;8317;52.186;5.688;2023-05-10T11:16:19;16.10;99.90
16417;DHT22;8317;52.186;5.688;2023-05-10T11:19:00;15.80;99.90
16417;DHT22;8317;52.186;5.688;2023-05-10T11:21:28;15.80;99.90
16417;DHT22;8317;52.186;5.688;2023-05-10T11:23:57;15.70;99.90
16417;DHT22;8317;52.186;5.688;2023-05-10T11:26:30;15.60;99.90
16417;DHT22;8317;52.186;5.688;2023-05-10T11:28:58;15.80;99.90
16417;DHT22;8317;52.186;5.688;2023-05-10T11:31:26;15.70;99.90
16417;DHT22;8317;52.186;5.688;2023-05-10T11:33:54;15.70;99.90
16417;DHT22;8317;52.186;5.688;2023-05-10T11:36:23;15.70;99.90
16417;DHT22;8317;52.186;5.688;2023-05-10T11:38:51;15.90;99.90
16417;DHT22;8317;52.186;5.688;2023-05-10T11:41:19;15.80;99.90
16417;DHT22;8317;52.186;5.688;2023-05-10T11:43:50;15.80;99.90
16417;DHT22;8317;52.186;5.688;2023-05-10T11:46:19;15.70;99.90
16417;DHT22;8317;52.186;5.688;2023-05-10T11:48:48;16.00;99.90
16417;DHT22;8317;52.186;5.688;2023-05-10T11:51:20;15.90;99.90
16417;DHT22;8317;52.186;5.688;2023-05-10T11:53:47;15.90;99.90
16417;DHT22;8317;52.186;5.688;2023-05-10T11:56:14;15.90;99.90
16417;DHT22;8317;52.186;5.688;2023-05-10T11:58:41;15.90;99.90
16417;DHT22;8317;52.186;5.688;2023-05-10T12:01:09;16.00;99.90
16417;DHT22;8317;52.186;5.688;2023-05-10T12:03:37;16.20;99.90
16417;DHT22;8317;52.186;5.688;2023-05-10T12:06:05;16.10;99.90
16417;DHT22;8317;52.186;5.688;2023-05-10T12:08:33;16.10;99.90
16417;DHT22;8317;52.186;5.688;2023-05-10T12:11:08;16.10;99.90
16417;DHT22;8317;52.186;5.688;2023-05-10T12:13:38;16.20;99.90
16417;DHT22;8317;52.186;5.688;2023-05-10T12:16:15;16.30;99.90
16417;DHT22;8317;52.186;5.688;2023-05-10T12:18:42;16.10;99.90
16417;DHT22;8317;52.186;5.688;2023-05-10T12:21:10;16.10;99.90
16417;DHT22;8317;52.186;5.688;2023-05-10T12:23:38;16.00;99.90
16417;DHT22;8317;52.186;5.688;2023-05-10T12:26:05;16.30;99.90
16417;DHT22;8317;52.186;5.688;2023-05-10T12:28:33;16.40;99.90
16417;DHT22;8317;52.186;5.688;2023-05-10T12:31:01;16.20;99.90
16417;DHT22;8317;52.186;5.688;2023-05-10T12:33:36;16.10;99.90
16417;DHT22;8317;52.186;5.688;2023-05-10T12:36:07;16.00;99.90
16417;DHT22;8317;52.186;5.688;2023-05-10T12:38:35;16.10;99.90
16417;DHT22;8317;52.186;5.688;2023-05-10T12:41:04;16.20;99.90
16417;DHT22;8317;52.186;5.688;2023-05-10T12:43:32;16.10;99.90
16417;DHT22;8317;52.186;5.688;2023-05-10T12:46:04;16.20;99.90
16417;DHT22;8317;52.186;5.688;2023-05-10T12:48:31;16.40;99.90
16417;DHT22;8317;52.186;5.688;2023-05-10T12:51:00;16.30;99.90
16417;DHT22;8317;52.186;5.688;2023-05-10T12:53:27;16.30;99.90
16417;DHT22;8317;52.186;5.688;2023-05-10T12:55:55;16.30;99.90
16417;DHT22;8317;52.186;5.688;2023-05-10T12:58:22;16.30;99.90
16417;DHT22;8317;52.186;5.688;2023-05-10T13:00:49;16.10;99.90
16417;DHT22;8317;52.186;5.688;2023-05-10T13:03:17;16.20;99.90
16417;DHT22;8317;52.186;5.688;2023-05-10T13:05:44;16.00;99.90
16417;DHT22;8317;52.186;5.688;2023-05-10T13:08:12;16.00;99.90
16417;DHT22;8317;52.186;5.688;2023-05-10T13:10:39;16.00;99.90
16417;DHT22;8317;52.186;5.688;2023-05-10T13:13:06;16.30;99.90
16417;DHT22;8317;52.186;5.688;2023-05-10T13:15:35;16.10;99.90
16417;DHT22;8317;52.186;5.688;2023-05-10T13:18:02;16.30;99.90
16417;DHT22;8317;52.186;5.688;2023-05-10T13:20:29;16.00;99.90
16417;DHT22;8317;52.186;5.688;2023-05-10T13:22:56;16.10;99.90
16417;DHT22;8317;52.186;5.688;2023-05-10T13:25:24;16.40;99.90
16417;DHT22;8317;52.186;5.688;2023-05-10T13:27:51;16.40;99.90
16417;DHT22;8317;52.186;5.688;2023-05-10T13:30:18;16.60;99.90
16417;DHT22;8317;52.186;5.688;2023-05-10T13:32:46;16.70;99.90
16417;DHT22;8317;52.186;5.688;2023-05-10T13:35:12;16.90;99.90
16417;DHT22;8317;52.186;5.688;2023-05-10T13:37:39;17.00;99.90
16417;DHT22;8317;52.186;5.688;2023-05-10T13:40:07;17.20;99.90
16417;DHT22;8317;52.186;5.688;2023-05-10T13:45:03;17.70;99.90
16417;DHT22;8317;52.186;5.688;2023-05-10T13:47:30;17.40;99.90
16417;DHT22;8317;52.186;5.688;2023-05-10T13:52:25;17.70;99.90
16417;DHT22;8317;52.186;5.688;2023-05-10T13:57:20;17.60;99.90
16417;DHT22;8317;52.186;5.688;2023-05-10T13:59:48;17.70;99.90
16417;DHT22;8317;52.186;5.688;2023-05-10T14:02:15;17.60;99.90
16417;DHT22;8317;52.186;5.688;2023-05-10T14:04:42;17.40;99.90
16417;DHT22;8317;52.186;5.688;2023-05-10T14:07:09;17.30;99.90
16417;DHT22;8317;52.186;5.688;2023-05-10T14:12:03;17.30;99.90
16417;DHT22;8317;52.186;5.688;2023-05-10T14:14:30;17.20;99.90
16417;DHT22;8317;52.186;5.688;2023-05-10T14:19:26;17.00;99.90
16417;DHT22;8317;52.186;5.688;2023-05-10T14:24:23;16.90;99.90
16417;DHT22;8317;52.186;5.688;2023-05-10T14:26:50;16.30;99.90
16417;DHT22;8317;52.186;5.688;2023-05-10T14:29:19;16.30;99.90
16417;DHT22;8317;52.186;5.688;2023-05-10T14:31:46;16.00;99.90
16417;DHT22;8317;52.186;5.688;2023-05-10T14:34:14;15.90;99.90
16417;DHT22;8317;52.186;5.688;2023-05-10T14:36:41;15.70;99.90
16417;DHT22;8317;52.186;5.688;2023-05-10T14:46:33;15.60;99.90
16417;DHT22;8317;52.186;5.688;2023-05-10T14:49:00;15.60;99.90
16417;DHT22;8317;52.186;5.688;2023-05-10T14:53:57;15.40;99.90
16417;DHT22;8317;52.186;5.688;2023-05-10T14:58:52;15.30;99.90
16417;DHT22;8317;52.186;5.688;2023-05-10T15:01:18;15.10;99.90
16417;DHT22;8317;52.186;5.688;2023-05-10T15:03:45;15.20;99.90
16417;DHT22;8317;52.186;5.688;2023-05-10T15:08:42;15.00;99.90
16417;DHT22;8317;52.186;5.688;2023-05-10T15:11:09;15.00;99.90
16417;DHT22;8317;52.186;5.688;2023-05-10T15:13:36;15.00;99.90
16417;DHT22;8317;52.186;5.688;2023-05-10T15:16:03;14.80;99.90
16417;DHT22;8317;52.186;5.688;2023-05-10T15:18:30;14.90;99.90
16417;DHT22;8317;52.186;5.688;2023-05-10T15:20:57;14.90;99.90
16417;DHT22;8317;52.186;5.688;2023-05-10T15:23:24;14.70;99.90
16417;DHT22;8317;52.186;5.688;2023-05-10T15:25:53;14.70;99.90
16417;DHT22;8317;52.186;5.688;2023-05-10T15:28:21;14.70;99.90
16417;DHT22;8317;52.186;5.688;2023-05-10T15:30:48;14.80;99.90
16417;DHT22;8317;52.186;5.688;2023-05-10T15:33:14;14.80;99.90
16417;DHT22;8317;52.186;5.688;2023-05-10T15:35:41;14.80;99.90
16417;DHT22;8317;52.186;5.688;2023-05-10T15:38:10;14.70;99.90
16417;DHT22;8317;52.186;5.688;2023-05-10T15:40:37;14.90;99.90
16417;DHT22;8317;52.186;5.688;2023-05-10T15:43:05;14.70;99.90
16417;DHT22;8317;52.186;5.688;2023-05-10T15:45:32;14.80;99.90
16417;DHT22;8317;52.186;5.688;2023-05-10T15:47:59;14.80;99.90
16417;DHT22;8317;52.186;5.688;2023-05-10T15:50:26;14.90;99.90
16417;DHT22;8317;52.186;5.688;2023-05-10T15:52:53;14.90;99.90
16417;DHT22;8317;52.186;5.688;2023-05-10T15:55:20;14.90;99.90
16417;DHT22;8317;52.186;5.688;2023-05-10T15:57:47;15.10;99.90
16417;DHT22;8317;52.186;5.688;2023-05-10T16:00:16;15.00;99.90
16417;DHT22;8317;52.186;5.688;2023-05-10T16:02:43;15.00;99.90
16417;DHT22;8317;52.186;5.688;2023-05-10T16:05:10;15.00;99.90
16417;DHT22;8317;52.186;5.688;2023-05-10T16:07:38;15.10;99.90
16417;DHT22;8317;52.186;5.688;2023-05-10T16:10:08;14.80;99.90
16417;DHT22;8317;52.186;5.688;2023-05-10T16:12:35;15.00;99.90
16417;DHT22;8317;52.186;5.688;2023-05-10T16:15:03;15.10;99.90
16417;DHT22;8317;52.186;5.688;2023-05-10T16:17:31;14.90;99.90
16417;DHT22;8317;52.186;5.688;2023-05-10T16:19:58;15.10;99.90
16417;DHT22;8317;52.186;5.688;2023-05-10T16:22:25;15.20;99.90
16417;DHT22;8317;52.186;5.688;2023-05-10T16:24:53;15.20;99.90
16417;DHT22;8317;52.186;5.688;2023-05-10T16:27:20;15.30;99.90
16417;DHT22;8317;52.186;5.688;2023-05-10T16:29:47;15.00;99.90
16417;DHT22;8317;52.186;5.688;2023-05-10T16:32:14;15.10;99.90
16417;DHT22;8317;52.186;5.688;2023-05-10T16:34:42;15.30;99.90
16417;DHT22;8317;52.186;5.688;2023-05-10T16:37:09;15.30;99.90
16417;DHT22;8317;52.186;5.688;2023-05-10T16:39:36;15.30;99.90
16417;DHT22;8317;52.186;5.688;2023-05-10T16:42:03;15.20;99.90
16417;DHT22;8317;52.186;5.688;2023-05-10T16:44:30;15.40;99.90
16417;DHT22;8317;52.186;5.688;2023-05-10T16:46:57;15.40;99.90
16417;DHT22;8317;52.186;5.688;2023-05-10T16:49:24;15.40;99.90
16417;DHT22;8317;52.186;5.688;2023-05-10T16:56:48;15.40;99.90
16417;DHT22;8317;52.186;5.688;2023-05-10T17:01:42;15.50;99.90
16417;DHT22;8317;52.186;5.688;2023-05-10T17:04:09;15.50;99.90
16417;DHT22;8317;52.186;5.688;2023-05-10T17:06:36;15.50;99.90
16417;DHT22;8317;52.186;5.688;2023-05-10T17:09:04;15.60;99.90
16417;DHT22;8317;52.186;5.688;2023-05-10T17:11:31;15.50;99.90
16417;DHT22;8317;52.186;5.688;2023-05-10T17:14:00;15.40;99.90
16417;DHT22;8317;52.186;5.688;2023-05-10T17:16:28;15.40;99.90
16417;DHT22;8317;52.186;5.688;2023-05-10T17:18:55;15.30;99.90
16417;DHT22;8317;52.186;5.688;2023-05-10T17:21:22;15.20;99.90
16417;DHT22;8317;52.186;5.688;2023-05-10T17:23:49;15.20;99.90
16417;DHT22;8317;52.186;5.688;2023-05-10T17:26:17;15.20;99.90
16417;DHT22;8317;52.186;5.688;2023-05-10T17:28:44;15.10;99.90
16417;DHT22;8317;52.186;5.688;2023-05-10T17:31:11;15.10;99.90
16417;DHT22;8317;52.186;5.688;2023-05-10T17:33:38;15.20;99.90
16417;DHT22;8317;52.186;5.688;2023-05-10T17:36:05;15.10;99.90
16417;DHT22;8317;52.186;5.688;2023-05-10T17:38:33;15.00;99.90
16417;DHT22;8317;52.186;5.688;2023-05-10T17:41:00;15.00;99.90
16417;DHT22;8317;52.186;5.688;2023-05-10T17:43:28;15.00;99.90
16417;DHT22;8317;52.186;5.688;2023-05-10T17:45:56;15.00;99.90
16417;DHT22;8317;52.186;5.688;2023-05-10T17:48:23;14.90;99.90
16417;DHT22;8317;52.186;5.688;2023-05-10T17:50:50;15.10;99.90
16417;DHT22;8317;52.186;5.688;2023-05-10T17:53:17;15.10;99.90
16417;DHT22;8317;52.186;5.688;2023-05-10T17:55:44;15.00;99.90
16417;DHT22;8317;52.186;5.688;2023-05-10T17:58:11;15.20;99.90
16417;DHT22;8317;52.186;5.688;2023-05-10T18:00:40;15.00;99.90
16417;DHT22;8317;52.186;5.688;2023-05-10T18:03:07;14.90;99.90
16417;DHT22;8317;52.186;5.688;2023-05-10T18:05:35;15.00;99.90
16417;DHT22;8317;52.186;5.688;2023-05-10T18:08:02;15.00;99.90
16417;DHT22;8317;52.186;5.688;2023-05-10T18:10:29;15.00;99.90
16417;DHT22;8317;52.186;5.688;2023-05-10T18:12:56;15.00;99.90
16417;DHT22;8317;52.186;5.688;2023-05-10T18:15:24;15.00;99.90
16417;DHT22;8317;52.186;5.688;2023-05-10T18:17:52;15.10;99.90
16417;DHT22;8317;52.186;5.688;2023-05-10T18:20:20;15.10;99.90
16417;DHT22;8317;52.186;5.688;2023-05-10T18:22:47;15.10;99.90
16417;DHT22;8317;52.186;5.688;2023-05-10T18:25:14;15.00;99.90
16417;DHT22;8317;52.186;5.688;2023-05-10T18:27:43;15.10;99.90
16417;DHT22;8317;52.186;5.688;2023-05-10T18:30:11;14.90;99.90
16417;DHT22;8317;52.186;5.688;2023-05-10T18:32:38;14.80;99.90
16417;DHT22;8317;52.186;5.688;2023-05-10T18:35:09;14.90;99.90
16417;DHT22;8317;52.186;5.688;2023-05-10T18:37:36;14.90;99.90
16417;DHT22;8317;52.186;5.688;2023-05-10T18:40:04;14.90;99.90
16417;DHT22;8317;52.186;5.688;2023-05-10T18:42:34;14.80;99.90
16417;DHT22;8317;52.186;5.688;2023-05-10T18:45:01;14.80;99.90
16417;DHT22;8317;52.186;5.688;2023-05-10T18:47:28;14.70;99.90
16417;DHT22;8317;52.186;5.688;2023-05-10T18:49:55;14.90;99.90
16417;DHT22;8317;52.186;5.688;2023-05-10T18:52:24;14.80;99.90
16417;DHT22;8317;52.186;5.688;2023-05-10T18:54:51;14.80;99.90
16417;DHT22;8317;52.186;5.688;2023-05-10T18:57:17;14.60;99.90
16417;DHT22;8317;52.186;5.688;2023-05-10T18:59:45;14.60;99.90
16417;DHT22;8317;52.186;5.688;2023-05-10T19:02:12;14.60;99.90
16417;DHT22;8317;52.186;5.688;2023-05-10T19:04:39;14.60;99.90
16417;DHT22;8317;52.186;5.688;2023-05-10T19:07:07;14.50;99.90
16417;DHT22;8317;52.186;5.688;2023-05-10T19:09:35;14.50;99.90
16417;DHT22;8317;52.186;5.688;2023-05-10T19:12:03;14.50;99.90
16417;DHT22;8317;52.186;5.688;2023-05-10T19:14:30;14.40;99.90
16417;DHT22;8317;52.186;5.688;2023-05-10T19:16:57;14.40;99.90
16417;DHT22;8317;52.186;5.688;2023-05-10T19:19:24;14.30;99.90
16417;DHT22;8317;52.186;5.688;2023-05-10T19:21:52;14.20;99.90
16417;DHT22;8317;52.186;5.688;2023-05-10T19:24:19;14.30;99.90
16417;DHT22;8317;52.186;5.688;2023-05-10T19:26:49;14.40;99.90
16417;DHT22;8317;52.186;5.688;2023-05-10T19:29:16;14.30;99.90
16417;DHT22;8317;52.186;5.688;2023-05-10T19:31:43;14.10;99.90
16417;DHT22;8317;52.186;5.688;2023-05-10T19:34:10;14.20;99.90
16417;DHT22;8317;52.186;5.688;2023-05-10T19:36:37;14.10;99.90
16417;DHT22;8317;52.186;5.688;2023-05-10T19:39:04;14.30;99.90
16417;DHT22;8317;52.186;5.688;2023-05-10T19:41:31;14.20;99.90
16417;DHT22;8317;52.186;5.688;2023-05-10T19:43:59;14.30;99.90
16417;DHT22;8317;52.186;5.688;2023-05-10T19:46:26;14.20;99.90
16417;DHT22;8317;52.186;5.688;2023-05-10T19:48:53;14.10;99.90
16417;DHT22;8317;52.186;5.688;2023-05-10T19:51:20;14.20;99.90
16417;DHT22;8317;52.186;5.688;2023-05-10T19:53:47;14.20;99.90
16417;DHT22;8317;52.186;5.688;2023-05-10T19:56:14;14.10;99.90
16417;DHT22;8317;52.186;5.688;2023-05-10T19:58:42;14.30;99.90
16417;DHT22;8317;52.186;5.688;2023-05-10T20:01:11;14.20;99.90
16417;DHT22;8317;52.186;5.688;2023-05-10T20:03:38;14.20;99.90
16417;DHT22;8317;52.186;5.688;2023-05-10T20:06:05;14.10;99.90
16417;DHT22;8317;52.186;5.688;2023-05-10T20:08:32;14.20;99.90
16417;DHT22;8317;52.186;5.688;2023-05-10T20:10:59;14.30;99.90
16417;DHT22;8317;52.186;5.688;2023-05-10T20:13:28;14.20;99.90
16417;DHT22;8317;52.186;5.688;2023-05-10T20:15:55;14.20;99.90
16417;DHT22;8317;52.186;5.688;2023-05-10T20:18:24;14.20;99.90
16417;DHT22;8317;52.186;5.688;2023-05-10T20:20:54;14.20;99.90
16417;DHT22;8317;52.186;5.688;2023-05-10T20:23:21;14.20;99.90
16417;DHT22;8317;52.186;5.688;2023-05-10T20:25:48;14.20;99.90
16417;DHT22;8317;52.186;5.688;2023-05-10T20:28:19;14.20;99.90
16417;DHT22;8317;52.186;5.688;2023-05-10T20:30:46;14.30;99.90
16417;DHT22;8317;52.186;5.688;2023-05-10T20:33:13;14.30;99.90
16417;DHT22;8317;52.186;5.688;2023-05-10T20:35:42;14.20;99.90
16417;DHT22;8317;52.186;5.688;2023-05-10T20:38:10;14.30;99.90
16417;DHT22;8317;52.186;5.688;2023-05-10T20:40:36;14.30;99.90
16417;DHT22;8317;52.186;5.688;2023-05-10T20:43:04;14.30;99.90
16417;DHT22;8317;52.186;5.688;2023-05-10T20:45:31;14.30;99.90
16417;DHT22;8317;52.186;5.688;2023-05-10T20:47:57;14.30;99.90
16417;DHT22;8317;52.186;5.688;2023-05-10T20:50:24;14.40;99.90
16417;DHT22;8317;52.186;5.688;2023-05-10T20:52:53;14.30;99.90
16417;DHT22;8317;52.186;5.688;2023-05-10T20:55:20;14.20;99.90
16417;DHT22;8317;52.186;5.688;2023-05-10T20:57:47;14.20;99.90
16417;DHT22;8317;52.186;5.688;2023-05-10T21:00:14;14.30;99.90
16417;DHT22;8317;52.186;5.688;2023-05-10T21:02:43;14.30;99.90
16417;DHT22;8317;52.186;5.688;2023-05-10T21:05:10;14.30;99.90
16417;DHT22;8317;52.186;5.688;2023-05-10T21:07:38;14.40;99.90
16417;DHT22;8317;52.186;5.688;2023-05-10T21:10:10;14.20;99.90
16417;DHT22;8317;52.186;5.688;2023-05-10T21:12:37;14.30;99.90
16417;DHT22;8317;52.186;5.688;2023-05-10T21:15:04;14.30;99.90
16417;DHT22;8317;52.186;5.688;2023-05-10T21:17:31;14.30;99.90
16417;DHT22;8317;52.186;5.688;2023-05-10T21:19:58;14.20;99.90
16417;DHT22;8317;52.186;5.688;2023-05-10T21:22:25;14.30;99.90
16417;DHT22;8317;52.186;5.688;2023-05-10T21:24:52;14.40;99.90
16417;DHT22;8317;52.186;5.688;2023-05-10T21:27:20;14.10;99.90
16417;DHT22;8317;52.186;5.688;2023-05-10T21:29:47;14.20;99.90
16417;DHT22;8317;52.186;5.688;2023-05-10T21:32:14;14.20;99.90
16417;DHT22;8317;52.186;5.688;2023-05-10T21:34:41;14.20;99.90
16417;DHT22;8317;52.186;5.688;2023-05-10T21:37:08;14.20;99.90
16417;DHT22;8317;52.186;5.688;2023-05-10T21:39:35;14.10;99.90
16417;DHT22;8317;52.186;5.688;2023-05-10T21:42:02;14.20;99.90
16417;DHT22;8317;52.186;5.688;2023-05-10T21:44:30;14.20;99.90
16417;DHT22;8317;52.186;5.688;2023-05-10T21:46:57;14.20;99.90
16417;DHT22;8317;52.186;5.688;2023-05-10T21:49:24;14.10;99.90
16417;DHT22;8317;52.186;5.688;2023-05-10T21:51:51;14.20;99.90
16417;DHT22;8317;52.186;5.688;2023-05-10T21:54:18;14.10;99.90
16417;DHT22;8317;52.186;5.688;2023-05-10T21:56:45;14.00;99.90
16417;DHT22;8317;52.186;5.688;2023-05-10T21:59:13;14.10;99.90
16417;DHT22;8317;52.186;5.688;2023-05-10T22:01:41;14.30;99.90
16417;DHT22;8317;52.186;5.688;2023-05-10T22:04:08;14.10;99.90
16417;DHT22;8317;52.186;5.688;2023-05-10T22:06:35;14.20;99.90
16417;DHT22;8317;52.186;5.688;2023-05-10T22:09:02;14.00;99.90
16417;DHT22;8317;52.186;5.688;2023-05-10T22:11:29;14.10;99.90
16417;DHT22;8317;52.186;5.688;2023-05-10T22:13:57;14.10;99.90
16417;DHT22;8317;52.186;5.688;2023-05-10T22:16:24;14.00;99.90
16417;DHT22;8317;52.186;5.688;2023-05-10T22:18:52;14.00;99.90
16417;DHT22;8317;52.186;5.688;2023-05-10T22:21:19;14.00;99.90
16417;DHT22;8317;52.186;5.688;2023-05-10T22:23:46;13.90;99.90
16417;DHT22;8317;52.186;5.688;2023-05-10T22:26:13;14.10;99.90
16417;DHT22;8317;52.186;5.688;2023-05-10T22:28:40;14.00;99.90
16417;DHT22;8317;52.186;5.688;2023-05-10T22:31:08;14.10;99.90
16417;DHT22;8317;52.186;5.688;2023-05-10T22:33:36;13.90;99.90
16417;DHT22;8317;52.186;5.688;2023-05-10T22:36:05;14.00;99.90
16417;DHT22;8317;52.186;5.688;2023-05-10T22:38:32;14.00;99.90
16417;DHT22;8317;52.186;5.688;2023-05-10T22:40:59;14.00;99.90
16417;DHT22;8317;52.186;5.688;2023-05-10T22:43:26;14.00;99.90
16417;DHT22;8317;52.186;5.688;2023-05-10T22:45:53;14.00;99.90
16417;DHT22;8317;52.186;5.688;2023-05-10T22:48:20;14.00;99.90
16417;DHT22;8317;52.186;5.688;2023-05-10T22:50:47;14.10;99.90
16417;DHT22;8317;52.186;5.688;2023-05-10T22:53:15;13.90;99.90
16417;DHT22;8317;52.186;5.688;2023-05-10T22:55:42;14.10;99.90
16417;DHT22;8317;52.186;5.688;2023-05-10T22:58:09;13.90;99.90
16417;DHT22;8317;52.186;5.688;2023-05-10T23:00:37;14.00;99.90
16417;DHT22;8317;52.186;5.688;2023-05-10T23:03:04;14.00;99.90
16417;DHT22;8317;52.186;5.688;2023-05-10T23:05:31;14.00;99.90
16417;DHT22;8317;52.186;5.688;2023-05-10T23:07:58;13.80;99.90
16417;DHT22;8317;52.186;5.688;2023-05-10T23:10:26;13.90;99.90
16417;DHT22;8317;52.186;5.688;2023-05-10T23:12:53;14.00;99.90
16417;DHT22;8317;52.186;5.688;2023-05-10T23:15:21;13.80;99.90
16417;DHT22;8317;52.186;5.688;2023-05-10T23:17:48;13.80;99.90
16417;DHT22;8317;52.186;5.688;2023-05-10T23:20:15;13.80;99.90
16417;DHT22;8317;52.186;5.688;2023-05-10T23:22:42;13.80;99.90
16417;DHT22;8317;52.186;5.688;2023-05-10T23:25:09;13.80;99.90
16417;DHT22;8317;52.186;5.688;2023-05-10T23:27:37;13.80;99.90
16417;DHT22;8317;52.186;5.688;2023-05-10T23:30:05;13.70;99.90
16417;DHT22;8317;52.186;5.688;2023-05-10T23:32:32;13.70;99.90
16417;DHT22;8317;52.186;5.688;2023-05-10T23:35:00;13.70;99.90
16417;DHT22;8317;52.186;5.688;2023-05-10T23:37:27;13.60;99.90
16417;DHT22;8317;52.186;5.688;2023-05-10T23:39:54;13.70;99.90
16417;DHT22;8317;52.186;5.688;2023-05-10T23:42:21;13.60;99.90
16417;DHT22;8317;52.186;5.688;2023-05-10T23:44:49;13.70;99.90
16417;DHT22;8317;52.186;5.688;2023-05-10T23:47:16;13.60;99.90
16417;DHT22;8317;52.186;5.688;2023-05-10T23:49:43;13.70;99.90
16417;DHT22;8317;52.186;5.688;2023-05-10T23:52:10;13.70;99.90
16417;DHT22;8317;52.186;5.688;2023-05-10T23:54:37;13.60;99.90
16417;DHT22;8317;52.186;5.688;2023-05-10T23:57:04;13.60;99.90
16417;DHT22;8317;52.186;5.688;2023-05-10T23:59:31;13.50;99.90
